Micmac Environmental Services

46° 41' 47"N, 68° 01' 59"W, Elevation 540 ft.
Eastern Time

Hourly observations for the last 48 hours

Date Time Temperature (F) Humi-
dity

(%)
Wind
(mph)
Pressure Rain (in) Sun
(W/m2)
UV ET
(in)
Air Dew 6 Hour 1 Hr 3 Hr 6 Hr Day
Alt
(in)
Sea
Level

(mb)
Max Min
19 23:00 44.9 35.4 69 WNW 10 G 12 30.02 1016.8 0.05 74 0.0 0.032
19 22:00 46.3 36.3 68 Calm 30.01 1016.2 0.05 74 0.0 0.032
19 21:00 47.9 37.5 67 Calm 30.00 1015.8 0.05 74 0.0 0.032
19 20:00 49.8 41.5 55.3 49.8 73 Calm 29.97 1014.8 0.05 74 0.0 0.032
19 19:00 50.6 41.6 71 N 7 G 10 29.95 1014.3 0.05 74 0.0 0.032
19 18:00 50.2 41.5 72 NNW 10 G 17 29.94 1013.8 0.05 142 0.0 0.029
19 17:00 50.5 41.8 72 NNW 10 G 21 29.90 1012.6 0.05 221 0.6 0.024
19 16:00 52.3 43.5 72 NNW 17 G 26 29.88 1011.8 0.05 190 0.9 0.018
19 15:00 53.8 45.0 72 NW 19 G 26 29.83 1010.2 0.05 308 2.1 0.011
19 14:00 53.9 46.5 68.1 51.4 76 NW 14 G 19 29.79 1008.8 0.05 415 0.0 0.000
19 13:00 51.4 45.8 81 NNW 15 G 25 29.77 1008.3 0.05 415 0.0 0.000
19 12:00 52.7 47.7 83 NW 15 G 21 29.74 1007.0 0.05 415 0.0 0.000
19 11:00 57.4 50.3 77 NW 11 G 25 29.71 1006.2 0.05 415 0.0 0.000
19 10:00 60.0 52.4 76 WNW 14 G 22 29.66 1004.5 0.05 415 0.0 0.000
19 09:00 57.1 51.7 82 NW 16 G 24 29.63 1003.3 0.05 415 0.0 0.000
19 08:00 68.1 60.6 68.4 58.4 77 W 14 G 23 29.56 1001.0 0.05 0.05 415 0.0 0.000
19 07:00 66.5 60.5 81 WSW 12 G 19 29.54 1000.3 0.05 415 0.0 0.000
19 06:00 62.0 58.4 88 Calm 29.54 1000.4 0.05 415 0.0 0.000
19 05:00 58.8 57.1 94 Calm 29.53 999.9 0.05 0.05 415 0.0 0.000
19 04:00 59.2 57.5 94 Calm 29.54 1000.5 0.05 415 0.0 0.000
19 03:00 60.3 58.6 94 Calm 29.57 1001.3 0.05 0.05 415 0.0 0.000
19 02:00 59.7 58.3 83.7 59.6 95 SSW 5 G 10 29.58 1001.8 0.02 0.02 0.00 415 0.0 0.000
19 01:00 60.6 58.9 94 Calm 29.59 1002.2 0.00 415 0.0 0.000
19 00:00 61.8 59.1 91 Calm 29.63 1003.4 0.02 0.00 415 0.0 0.000
18 23:00 64.0 59.7 86 Calm 29.65 1003.9 0.00 415 0.0 0.055
18 22:00 71.4 58.6 64 NNW 21 G 35 29.61 1002.8 0.00 415 0.0 0.055
18 21:00 81.2 59.7 48 WSW 4 G 6 29.55 1000.5 0.00 415 0.0 0.055
18 20:00 83.6 58.8 90.2 83.6 43 WSW 9 G 16 29.53 1000.1 0.00 415 0.0 0.055
18 19:00 87.6 58.9 38 WSW 17 G 29 29.51 999.5 0.00 415 0.0 0.055
18 18:00 88.8 58.4 36 SW 18 G 23 29.52 999.8 0.00 415 0.0 0.055
18 17:00 88.3 58.0 36 WSW 16 G 28 29.54 1000.4 0.00 181 0.0 0.037
18 16:00 89.4 60.5 38 SW 14 G 21 29.55 1000.6 0.00 633 1.9 0.013
18 15:00 89.0 61.6 40 SW 16 G 27 29.58 1001.6 0.00 116 0.0 0.000
18 14:00 84.6 61.6 84.8 62.8 46 WSW 14 G 23 29.61 1002.8 0.00 116 0.0 0.000
18 13:00 82.0 64.3 55 SW 13 G 18 29.65 1003.9 0.00 116 0.0 0.000
18 12:00 80.5 64.4 58 WSW 12 G 17 29.67 1004.7 0.00 116 0.0 0.000
18 11:00 76.2 64.9 68 W 10 G 17 29.69 1005.6 0.00 116 0.0 0.000
18 10:00 72.7 63.6 73 SW 7 G 10 29.72 1006.3 0.00 116 0.0 0.000
18 09:00 67.8 62.8 84 SSE 0 G 5 29.72 1006.5 0.00 116 0.0 0.000
18 08:00 62.8 59.5 62.8 52.1 89 Calm 29.74 1007.3 0.00 116 0.0 0.000
18 07:00 56.5 54.2 92 Calm 29.74 1007.1 0.00 116 0.0 0.000
18 06:00 54.1 51.8 92 Calm 29.73 1006.9 0.00 116 0.0 0.000
18 05:00 52.2 50.2 93 Calm 29.71 1006.1 0.00 116 0.0 0.000
18 04:00 53.4 50.8 91 Calm 29.70 1005.8 0.00 116 0.0 0.000
18 03:00 55.9 52.1 87 Calm 29.71 1006.2 0.00 116 0.0 0.000
18 02:00 55.0 50.3 58.2 54.7 84 Calm 29.72 1006.5 0.00 116 0.0 0.000
18 01:00 54.7 49.6 83 S 0 G 6 29.71 1006.1 0.00 116 0.0 0.000
18 00:00 56.0 48.9 77 Calm 29.71 1006.2 0.01 116 0.0 0.000

Data generated by WxSolution Version 1.8.4.5, Build 2009.10.25.